Time;durP1;ratioP1;P1;durP2;ratioP2;P2;SDS_P1;SDS_P2;PMS_P1;PMS_P2;Temp;Humidity;BMP_temperature;BMP_pressure;BME280_temperature;BME280_humidity;BME280_pressure;Samples;Min_cycle;Max_cycle;Signal;HPM_P1;HPM_P2
2023/12/18 00:01:30;;;;;;;6.75;2.90;;;;;;;5.95;76.02;102556.09;10271885;28;96839;-81
2023/12/18 00:06:34;;;;;;;7.85;3.15;;;;;;;5.93;76.50;102568.25;10292629;28;96728;-81
2023/12/18 00:11:38;;;;;;;10.02;3.70;;;;;;;5.91;76.37;102542.09;10257624;28;97552;-81
2023/12/18 00:16:43;;;;;;;6.38;3.35;;;;;;;5.86;76.00;102558.56;10251591;28;96704;-81
2023/12/18 00:21:46;;;;;;;8.55;3.70;;;;;;;5.91;75.94;102547.34;10252940;28;97463;-82
2023/12/18 00:26:50;;;;;;;5.93;2.97;;;;;;;5.85;76.09;102544.59;10251845;28;97475;-82
2023/12/18 00:31:55;;;;;;;8.20;3.45;;;;;;;5.80;75.62;102541.06;10251747;28;96624;-82
2023/12/18 00:36:58;;;;;;;5.55;3.20;;;;;;;5.80;75.84;102528.00;10250451;28;97097;-82
2023/12/18 00:42:02;;;;;;;5.43;3.28;;;;;;;5.82;75.60;102534.13;10251396;28;96953;-81
2023/12/18 00:47:07;;;;;;;5.88;3.25;;;;;;;5.81;75.49;102528.88;10250941;28;96853;-82
2023/12/18 00:52:10;;;;;;;6.30;2.67;;;;;;;5.74;76.01;102532.25;10250754;28;96801;-81
2023/12/18 00:57:14;;;;;;;4.60;2.47;;;;;;;5.76;76.25;102523.59;10250686;28;97233;-81
2023/12/18 01:02:19;;;;;;;5.40;2.67;;;;;;;5.73;76.26;102515.69;10250606;28;96612;-81
2023/12/18 01:07:23;;;;;;;5.13;2.63;;;;;;;5.71;75.75;102506.09;10250519;28;96800;-81
2023/12/18 01:12:27;;;;;;;5.20;2.40;;;;;;;5.72;75.44;102510.44;10251085;28;96649;-81
2023/12/18 01:17:32;;;;;;;4.47;2.40;;;;;;;5.61;76.21;102505.03;10249677;28;97322;-81
2023/12/18 01:22:39;;;;;;;4.13;2.17;;;;;;;5.63;75.83;102512.06;10250007;28;98497;-82
2023/12/18 01:27:42;;;;;;;4.30;2.15;;;;;;;5.63;76.12;102503.34;10249142;28;96655;-81
2023/12/18 01:32:48;;;;;;;2.63;1.55;;;;;;;5.54;75.39;102522.34;10249726;28;97353;-82
2023/12/18 01:37:54;;;;;;;4.07;2.10;;;;;;;5.56;76.01;102518.03;10249461;28;97254;-82
2023/12/18 01:42:57;;;;;;;3.55;1.98;;;;;;;5.63;75.55;102529.44;10248719;28;96554;-82
2023/12/18 01:48:03;;;;;;;3.03;2.13;;;;;;;5.60;75.70;102525.06;10249027;28;97312;-82
2023/12/18 01:53:07;;;;;;;4.57;2.10;;;;;;;5.55;75.26;102525.84;10248874;28;97216;-82
2023/12/18 01:58:14;;;;;;;3.83;1.80;;;;;;;5.51;75.92;102531.84;10248897;28;97019;-82
2023/12/18 02:03:20;;;;;;;7.03;2.90;;;;;;;5.50;75.89;102525.75;10249075;28;96820;-82
2023/12/18 02:08:24;;;;;;;4.13;2.17;;;;;;;5.50;75.57;102545.78;10248196;28;96877;-81
2023/12/18 02:13:28;;;;;;;2.53;1.77;;;;;;;5.52;75.29;102547.53;10248788;28;97309;-82
2023/12/18 02:18:32;;;;;;;4.93;1.98;;;;;;;5.44;75.81;102537.81;10247187;28;96740;-81
2023/12/18 02:23:38;;;;;;;3.55;1.67;;;;;;;5.41;76.07;102553.44;10248443;28;97037;-81
2023/12/18 02:28:42;;;;;;;6.03;3.15;;;;;;;5.36;75.56;102549.88;10248420;28;97447;-82
2023/12/18 02:33:49;;;;;;;3.83;1.92;;;;;;;5.42;75.97;102568.25;10248046;28;97181;-82
2023/12/18 02:38:56;;;;;;;4.10;1.88;;;;;;;5.35;75.96;102555.94;10248382;28;96999;-82
2023/12/18 02:43:59;;;;;;;3.78;2.25;;;;;;;5.29;76.16;102556.72;10247368;28;96740;-82
2023/12/18 02:49:03;;;;;;;3.88;1.95;;;;;;;5.28;76.39;102547.13;10247688;28;97414;-82
2023/12/18 02:54:11;;;;;;;4.20;2.13;;;;;;;5.31;76.24;102562.81;10254525;28;97227;-82
2023/12/18 02:59:17;;;;;;;2.47;1.92;;;;;;;5.24;75.88;102550.50;10254449;28;96642;-81
2023/12/18 03:04:23;;;;;;;3.65;2.00;;;;;;;5.34;75.42;102543.75;10253931;28;96739;-81
2023/12/18 03:09:28;;;;;;;3.88;2.00;;;;;;;5.30;76.21;102563.69;10253559;28;97482;-82
2023/12/18 03:14:31;;;;;;;4.65;2.70;;;;;;;5.27;76.15;102547.97;10253979;28;97346;-82
2023/12/18 03:19:35;;;;;;;4.18;1.88;;;;;;;5.26;75.47;102550.56;10253703;28;96790;-81
2023/12/18 03:24:42;;;;;;;5.88;2.17;;;;;;;5.28;75.84;102551.44;10253240;28;96888;-82
2023/12/18 03:29:46;;;;;;;3.60;2.30;;;;;;;5.25;75.89;102551.41;10253934;28;97314;-81
2023/12/18 03:34:49;;;;;;;4.07;1.75;;;;;;;5.28;76.13;102543.63;10253119;28;98389;-82
2023/12/18 03:39:54;;;;;;;3.53;1.83;;;;;;;5.29;76.11;102540.16;10253040;28;96676;-81
2023/12/18 03:44:57;;;;;;;3.40;1.95;;;;;;;5.23;75.37;102569.63;10253457;28;97674;-81
2023/12/18 03:50:03;;;;;;;3.80;2.20;;;;;;;5.26;75.29;102559.25;10253426;28;96931;-82
2023/12/18 03:55:08;;;;;;;;;;;;;;;5.28;75.15;102546.22;10253395;28;97221;-82
2023/12/18 04:00:13;;;;;;;3.28;1.83;;;;;;;5.28;75.39;102543.63;10251773;28;96985;-81
2023/12/18 04:05:16;;;;;;;3.03;1.90;;;;;;;5.29;75.76;102559.34;10251230;28;97131;-82
2023/12/18 04:10:27;;;;;;;3.85;2.13;;;;;;;5.27;75.93;102547.09;10212009;28;97174;-82
2023/12/18 04:15:33;;;;;;;3.97;2.10;;;;;;;5.32;75.40;102542.81;10211762;28;96570;-81
2023/12/18 04:20:37;;;;;;;4.18;2.08;;;;;;;5.31;75.41;102559.34;10211845;28;96719;-81
2023/12/18 04:25:43;;;;;;;2.70;1.70;;;;;;;5.28;75.44;102561.88;10239581;28;96969;-81
2023/12/18 04:30:48;;;;;;;4.28;2.03;;;;;;;5.33;74.88;102561.13;10251834;28;96618;-81
2023/12/18 04:35:52;;;;;;;4.03;2.00;;;;;;;5.34;75.60;102560.28;10271949;22;96793;-81
2023/12/18 04:40:59;;;;;;;4.50;1.90;;;;;;;5.33;75.21;102560.22;10305594;28;96694;-82
2023/12/18 04:46:02;;;;;;;3.28;1.70;;;;;;;5.31;74.72;102562.81;10332895;28;97198;-81
2023/12/18 04:51:06;;;;;;;3.92;2.15;;;;;;;5.30;75.78;102558.47;10331767;28;97310;-81
2023/12/18 04:56:10;;;;;;;4.13;2.13;;;;;;;5.26;75.03;102556.63;10332081;28;96642;-81
2023/12/18 05:01:14;;;;;;;4.15;1.90;;;;;;;5.23;74.95;102555.69;10331571;28;96753;-81
2023/12/18 05:06:21;;;;;;;4.68;2.42;;;;;;;5.31;75.09;102546.31;10331067;28;96712;-82
2023/12/18 05:11:26;;;;;;;3.65;2.10;;;;;;;5.22;74.66;102546.13;10290850;28;96913;-81
2023/12/18 05:16:30;;;;;;;4.95;2.67;;;;;;;5.21;74.88;102550.47;10314627;28;96805;-81
2023/12/18 05:21:35;;;;;;;3.40;1.77;;;;;;;5.23;75.69;102537.44;10331462;28;96776;-82
2023/12/18 05:26:40;;;;;;;4.53;2.10;;;;;;;5.17;74.83;102548.63;10332116;28;96602;-82
2023/12/18 05:31:44;;;;;;;4.87;2.03;;;;;;;5.15;75.32;102547.75;10331131;28;96793;-82
2023/12/18 05:36:48;;;;;;;4.67;1.93;;;;;;;5.18;75.46;102552.13;10328786;28;97495;-81
2023/12/18 05:41:53;;;;;;;5.38;2.50;;;;;;;5.20;75.19;102561.75;10330446;28;96888;-82
2023/12/18 05:46:58;;;;;;;3.10;2.05;;;;;;;5.16;75.08;102559.03;10330578;28;96904;-82
2023/12/18 05:52:01;;;;;;;3.67;2.13;;;;;;;5.12;74.87;102550.28;10331238;28;97366;-82
2023/12/18 05:57:06;;;;;;;4.15;2.08;;;;;;;5.15;75.77;102560.81;10330262;28;96658;-81
2023/12/18 06:02:11;;;;;;;3.50;1.98;;;;;;;5.11;75.56;102560.69;10302113;28;97322;-81
2023/12/18 06:07:15;;;;;;;4.72;2.15;;;;;;;5.10;75.67;102567.66;10313602;28;97102;-81
2023/12/18 06:12:20;;;;;;;3.95;2.08;;;;;;;5.08;74.97;102563.25;10329792;28;96587;-82
2023/12/18 06:17:26;;;;;;;4.13;2.35;;;;;;;5.04;75.38;102559.69;10329470;28;96921;-81
2023/12/18 06:22:31;;;;;;;4.53;2.15;;;;;;;5.08;75.47;102566.75;10329587;28;97099;-82
2023/12/18 06:27:36;;;;;;;4.85;2.88;;;;;;;5.10;75.68;102564.16;10329121;28;96650;-82
2023/12/18 06:32:39;;;;;;;3.95;2.08;;;;;;;5.07;75.54;102562.34;10328436;28;96607;-82
2023/12/18 06:37:43;;;;;;;4.25;2.00;;;;;;;5.00;75.27;102567.44;10329199;28;96696;-82
2023/12/18 06:42:48;;;;;;;4.45;2.28;;;;;;;5.04;75.17;102569.25;10327683;28;97620;-82
2023/12/18 06:47:51;;;;;;;3.55;2.10;;;;;;;5.03;75.17;102565.78;10329049;28;96588;-82
2023/12/18 06:52:57;;;;;;;2.95;2.08;;;;;;;5.03;75.99;102576.22;10329521;28;96936;-82
2023/12/18 06:58:03;;;;;;;4.88;2.58;;;;;;;5.03;75.51;102581.44;10328285;28;96648;-81
2023/12/18 07:03:06;;;;;;;5.00;2.30;;;;;;;5.03;75.02;102594.47;10328985;28;97291;-81
2023/12/18 07:08:11;;;;;;;3.22;1.90;;;;;;;5.02;75.67;102576.16;10329637;28;97379;-82
2023/12/18 07:13:16;;;;;;;5.18;2.10;;;;;;;5.03;75.94;102584.03;10328596;28;96833;-82
2023/12/18 07:18:19;;;;;;;3.85;2.35;;;;;;;5.01;75.74;102595.28;10328267;28;97281;-81
2023/12/18 07:23:23;;;;;;;2.63;1.70;;;;;;;4.99;75.31;102587.44;10326333;28;96673;-82
2023/12/18 07:28:28;;;;;;;3.45;2.10;;;;;;;4.94;75.97;102596.91;10287798;28;97567;-82
2023/12/18 07:33:31;;;;;;;3.65;2.28;;;;;;;4.94;75.82;102599.50;10322120;28;96602;-82
2023/12/18 07:38:39;;;;;;;5.38;2.45;;;;;;;4.95;75.78;102589.97;10329841;28;96618;-82
2023/12/18 07:43:43;;;;;;;4.00;2.50;;;;;;;4.96;75.96;102602.16;10334510;28;97359;-82
2023/12/18 07:48:48;;;;;;;4.78;2.17;;;;;;;4.96;75.89;102609.97;10334255;28;97755;-81
2023/12/18 07:53:55;;;;;;;4.05;2.20;;;;;;;4.92;75.09;102603.81;10334513;28;96589;-82
2023/12/18 07:59:00;;;;;;;3.75;2.33;;;;;;;4.96;75.24;102623.00;10328504;28;96982;-81
2023/12/18 08:04:06;;;;;;;4.65;2.30;;;;;;;4.94;75.72;102620.38;10334410;28;96784;-81
2023/12/18 08:09:10;;;;;;;3.45;2.20;;;;;;;4.94;74.95;102633.41;10332256;28;96751;-82
2023/12/18 08:14:17;;;;;;;4.35;2.03;;;;;;;4.94;75.54;102628.19;10333207;28;96654;-81
2023/12/18 08:19:20;;;;;;;3.63;2.05;;;;;;;4.97;75.20;102623.03;10333580;28;97267;-82
2023/12/18 08:24:24;;;;;;;4.85;2.42;;;;;;;5.02;75.28;102630.94;10333373;28;96705;-81
2023/12/18 08:29:29;;;;;;;2.90;1.85;;;;;;;4.98;74.93;102634.38;10333607;28;97873;-82
2023/12/18 08:34:34;;;;;;;;;;;;;;;4.96;75.03;102636.06;10333637;28;97576;-82
2023/12/18 08:39:38;;;;;;;4.80;1.80;;;;;;;4.99;75.13;102643.94;10333164;28;96857;-81
2023/12/18 08:44:43;;;;;;;3.22;2.00;;;;;;;4.98;75.20;102644.81;10333069;28;96954;-82
2023/12/18 08:49:46;;;;;;;3.75;2.38;;;;;;;5.03;74.41;102641.44;10333262;28;96828;-82
2023/12/18 08:54:54;;;;;;;4.72;2.08;;;;;;;5.10;74.60;102645.94;10332273;28;96627;-82
2023/12/18 08:59:59;;;;;;;3.80;2.28;;;;;;;5.17;74.39;102667.81;10332490;28;98804;-82
2023/12/18 09:05:02;;;;;;;3.05;2.20;;;;;;;5.20;74.36;102666.16;10331444;28;97366;-82
2023/12/18 09:10:09;;;;;;;6.50;2.78;;;;;;;5.27;73.51;102674.97;10332398;28;96782;-82
2023/12/18 09:15:16;;;;;;;4.30;2.60;;;;;;;5.38;73.99;102658.69;10331789;28;96931;-81
2023/12/18 09:20:22;;;;;;;5.07;2.38;;;;;;;5.34;73.54;102677.75;10332540;28;96971;-82
2023/12/18 09:25:25;;;;;;;;;;;;;;;5.41;73.29;102671.81;10331757;28;96730;-82
2023/12/18 09:30:29;;;;;;;6.05;2.88;;;;;;;5.48;73.70;102683.25;10330961;28;97782;-82
2023/12/18 09:35:36;;;;;;;7.85;2.65;;;;;;;5.66;72.58;102678.38;10331005;28;96679;-82
2023/12/18 09:40:43;;;;;;;5.68;2.60;;;;;;;5.60;72.54;102673.94;10331820;28;97297;-82
2023/12/18 09:45:49;;;;;;;4.85;2.63;;;;;;;5.79;72.62;102680.38;10330287;28;97583;-82
2023/12/18 09:50:54;;;;;;;3.67;2.28;;;;;;;5.77;72.22;102696.84;10331161;28;97152;-82
2023/12/18 09:55:58;;;;;;;6.37;2.97;;;;;;;5.85;71.64;102693.53;10329738;28;97360;-82
2023/12/18 10:01:02;;;;;;;5.25;2.95;;;;;;;5.95;71.30;102695.47;10329925;28;96938;-82
2023/12/18 10:06:06;;;;;;;3.20;2.35;;;;;;;5.95;71.23;102695.47;10330382;28;97025;-82
2023/12/18 10:11:24;;;;;;;4.80;2.90;;;;;;;5.83;70.60;102683.91;10330291;28;96658;-82
2023/12/18 10:16:29;;;;;;;6.97;3.17;;;;;;;5.99;71.41;102686.81;10330112;28;97533;-82
2023/12/18 10:21:32;;;;;;;4.63;2.33;;;;;;;6.00;71.05;102680.75;10329906;28;97366;-82
2023/12/18 10:26:36;;;;;;;4.05;2.47;;;;;;;6.11;71.17;102684.41;10329236;28;97537;-81
2023/12/18 10:31:47;;;;;;;3.90;2.63;;;;;;;6.04;70.61;102679.09;10330716;28;96754;-82
2023/12/18 10:36:56;;;;;;;6.47;3.03;;;;;;;6.11;70.23;102688.78;10329664;28;97374;-82
2023/12/18 10:42:08;;;;;;;8.55;3.83;;;;;;;6.14;69.99;102679.28;10329792;28;96650;-82
2023/12/18 10:47:16;;;;;;;3.85;2.45;;;;;;;6.16;69.97;102679.28;10327992;28;96611;-82
2023/12/18 10:52:24;;;;;;;4.82;3.05;;;;;;;6.19;70.00;102672.38;10329375;28;96659;-82
2023/12/18 10:57:31;;;;;;;6.13;2.72;;;;;;;6.18;70.55;102667.09;10328981;28;97370;-82
2023/12/18 11:02:39;;;;;;;5.72;2.88;;;;;;;6.13;69.81;102663.53;10329007;28;96937;-82
2023/12/18 11:07:46;;;;;;;8.68;4.20;;;;;;;6.14;70.22;102663.59;10327091;28;96849;-81
2023/12/18 11:12:55;;;;;;;4.88;2.83;;;;;;;6.18;70.25;102654.91;10329848;28;97049;-82
2023/12/18 11:18:12;;;;;;;5.10;2.65;;;;;;;6.04;69.83;102648.56;10335010;28;97118;-81
2023/12/18 11:23:17;;;;;;;5.65;3.65;;;;;;;6.12;69.88;102635.66;10336713;28;96924;-82
2023/12/18 11:28:24;;;;;;;6.95;3.25;;;;;;;6.20;70.12;102629.69;10335954;28;97337;-82
2023/12/18 11:33:31;;;;;;;6.47;3.78;;;;;;;6.16;69.55;102632.25;10335687;28;97075;-82
2023/12/18 11:38:51;;;;;;;5.10;3.00;;;;;;;6.11;69.82;102629.53;10333835;28;97486;-82
2023/12/18 11:43:57;;;;;;;5.63;2.92;;;;;;;6.24;70.62;102631.50;10334449;28;96902;-82
2023/12/18 11:49:07;;;;;;;5.75;3.03;;;;;;;6.21;70.25;102620.13;10334418;28;97086;-81
2023/12/18 11:54:16;;;;;;;6.05;3.30;;;;;;;6.24;69.58;102618.44;10333978;28;97169;-82
2023/12/18 11:59:23;;;;;;;7.80;3.33;;;;;;;6.27;69.55;102604.50;10329995;28;96973;-82
2023/12/18 12:04:32;;;;;;;7.25;4.25;;;;;;;6.27;70.02;102618.47;10319119;28;97596;-82
2023/12/18 12:09:39;;;;;;;5.93;3.72;;;;;;;6.14;69.51;102600.84;10334969;28;96722;-82
2023/12/18 12:14:48;;;;;;;5.53;3.17;;;;;;;6.10;70.18;102588.59;10334665;28;96601;-81
2023/12/18 12:19:53;;;;;;;7.43;4.43;;;;;;;6.14;69.38;102582.56;10333615;28;96962;-82
2023/12/18 12:24:56;;;;;;;6.15;3.67;;;;;;;6.08;69.94;102586.78;10333234;28;96901;-82
2023/12/18 12:30:03;;;;;;;7.97;4.68;;;;;;;6.12;70.14;102573.81;10332277;28;96662;-81
2023/12/18 12:35:11;;;;;;;5.60;3.03;;;;;;;6.16;69.33;102543.38;10333266;28;97460;-81
2023/12/18 12:40:14;;;;;;;6.28;3.75;;;;;;;6.16;69.87;102533.78;10333531;28;96877;-81
2023/12/18 12:45:18;;;;;;;4.65;3.17;;;;;;;6.20;69.46;102540.81;10332536;28;98126;-82
2023/12/18 12:50:23;;;;;;;7.18;4.03;;;;;;;6.18;69.26;102531.16;10332649;28;96702;-82
2023/12/18 12:55:27;;;;;;;7.72;4.38;;;;;;;6.08;69.22;102524.94;10332621;28;97416;-81
2023/12/18 13:00:30;;;;;;;6.30;3.47;;;;;;;6.18;69.24;102533.78;10332056;28;96683;-81
2023/12/18 13:05:36;;;;;;;7.28;4.07;;;;;;;6.15;69.75;102525.91;10333369;28;96989;-81
2023/12/18 13:10:40;;;;;;;5.65;3.20;;;;;;;6.24;69.11;102516.47;10332030;28;96702;-81
2023/12/18 13:15:44;;;;;;;9.13;4.25;;;;;;;6.73;67.68;102520.63;10331819;28;97417;-81
2023/12/18 13:20:49;;;;;;;6.53;3.83;;;;;;;7.75;64.69;102508.56;10330872;28;97488;-82
2023/12/18 13:25:52;;;;;;;6.63;3.70;;;;;;;8.82;61.61;102490.81;10331740;28;96644;-81
2023/12/18 13:30:56;;;;;;;8.00;4.72;;;;;;;7.92;62.89;102504.34;10330156;28;97065;-82
2023/12/18 13:36:01;;;;;;;7.68;3.97;;;;;;;7.11;64.92;102487.94;10329981;28;96766;-82
2023/12/18 13:41:09;;;;;;;7.30;4.30;;;;;;;6.71;66.07;102481.31;10331383;28;97254;-81
2023/12/18 13:46:16;;;;;;;8.20;4.05;;;;;;;6.44;67.86;102481.00;10330324;28;96624;-82
2023/12/18 13:51:22;;;;;;;7.10;3.97;;;;;;;6.46;67.63;102487.13;10330937;28;96728;-82
2023/12/18 13:56:26;;;;;;;6.80;3.83;;;;;;;6.43;67.96;102476.66;10331203;28;96675;-81
2023/12/18 14:01:30;;;;;;;6.72;4.10;;;;;;;6.21;68.04;102469.34;10330638;28;96664;-81
2023/12/18 14:06:35;;;;;;;7.07;4.47;;;;;;;6.22;68.22;102473.75;10330303;28;96748;-81
2023/12/18 14:11:39;;;;;;;7.00;4.20;;;;;;;6.21;68.61;102476.34;10289986;28;97055;-82
2023/12/18 14:16:42;;;;;;;7.75;4.50;;;;;;;6.25;69.05;102471.16;10288510;28;96698;-81
2023/12/18 14:21:47;;;;;;;7.65;4.25;;;;;;;6.21;68.65;102481.56;10324470;28;96959;-82
2023/12/18 14:26:51;;;;;;;7.70;5.07;;;;;;;6.37;69.06;102473.06;10329863;28;96731;-82
2023/12/18 14:31:57;;;;;;;9.48;4.63;;;;;;;6.27;68.51;102469.47;10328287;28;97080;-82
2023/12/18 14:37:07;;;;;;;8.45;4.97;;;;;;;6.23;69.30;102464.19;10327416;28;96950;-81
2023/12/18 14:42:11;;;;;;;12.05;5.10;;;;;;;6.20;69.49;102480.69;10329465;28;96700;-81
2023/12/18 14:47:18;;;;;;;7.50;4.85;;;;;;;7.16;66.33;102461.78;10331189;28;96671;-81
2023/12/18 14:52:24;;;;;;;9.10;4.90;;;;;;;7.95;63.60;102454.56;10336595;28;97205;-82
2023/12/18 14:57:27;;;;;;;8.88;4.85;;;;;;;8.25;62.60;102463.44;10336369;28;96813;-82
2023/12/18 15:02:33;;;;;;;9.90;4.85;;;;;;;8.20;62.53;102473.94;10335632;28;97174;-82
2023/12/18 15:07:38;;;;;;;7.03;5.05;;;;;;;8.19;61.82;102453.81;10335708;28;97201;-82
2023/12/18 15:12:42;;;;;;;9.00;5.80;;;;;;;8.45;61.79;102469.66;10336048;28;96973;-82
2023/12/18 15:17:45;;;;;;;9.00;4.93;;;;;;;8.17;61.63;102470.41;10335615;28;96884;-82
2023/12/18 15:22:51;;;;;;;7.85;5.00;;;;;;;8.28;61.66;102474.84;10335552;28;96656;-82
2023/12/18 15:27:56;;;;;;;9.73;5.63;;;;;;;8.40;61.62;102482.75;10335341;28;96598;-82
2023/12/18 15:33:01;;;;;;;9.98;5.55;;;;;;;8.32;61.80;102468.75;10334870;28;96609;-82
2023/12/18 15:38:06;;;;;;;10.75;5.60;;;;;;;8.19;61.71;102471.28;10334812;28;97162;-82
2023/12/18 15:43:10;;;;;;;9.10;6.00;;;;;;;7.98;62.79;102477.28;10333504;28;96737;-82
2023/12/18 15:48:14;;;;;;;9.50;5.30;;;;;;;7.77;63.28;102470.16;10334509;28;97000;-82
2023/12/18 15:53:19;;;;;;;9.95;5.03;;;;;;;7.52;63.69;102467.34;10333745;28;96617;-82
2023/12/18 15:58:22;;;;;;;9.45;5.82;;;;;;;7.35;63.97;102475.06;10333534;28;97380;-82
2023/12/18 16:03:26;;;;;;;10.30;5.90;;;;;;;7.15;64.57;102467.84;10333700;28;96618;-82
2023/12/18 16:08:33;;;;;;;9.18;5.25;;;;;;;6.86;65.78;102464.06;10334045;28;97309;-82
2023/12/18 16:13:37;;;;;;;12.40;6.15;;;;;;;6.55;66.46;102466.34;10333857;28;97301;-82
2023/12/18 16:18:40;;;;;;;8.93;4.60;;;;;;;6.23;67.70;102459.81;10332999;28;96709;-81
2023/12/18 16:23:46;;;;;;;8.80;4.57;;;;;;;6.07;68.10;102468.31;10333659;28;97309;-82
2023/12/18 16:28:50;;;;;;;9.13;5.40;;;;;;;5.91;69.68;102458.50;10334091;28;96735;-82
2023/12/18 16:33:53;;;;;;;13.52;7.35;;;;;;;5.86;69.55;102459.28;10333429;28;96816;-82
2023/12/18 16:38:58;;;;;;;10.85;5.55;;;;;;;5.61;70.43;102458.91;10332671;28;96712;-82
2023/12/18 16:44:03;;;;;;;10.57;6.15;;;;;;;5.63;70.82;102451.09;10299129;28;96829;-82
2023/12/18 16:49:07;;;;;;;12.65;5.78;;;;;;;5.61;71.52;102463.25;10291517;28;97482;-82
2023/12/18 16:54:13;;;;;;;13.05;7.10;;;;;;;5.50;71.35;102470.91;10322687;28;96780;-81
2023/12/18 16:59:17;;;;;;;12.27;5.20;;;;;;;5.45;71.62;102463.88;10332227;28;96931;-82
2023/12/18 17:04:21;;;;;;;11.02;5.57;;;;;;;5.44;71.81;102467.34;10337715;22;101362;-82
2023/12/18 17:09:26;;;;;;;13.43;7.22;;;;;;;5.38;71.72;102460.28;10371124;28;96916;-82
2023/12/18 17:14:30;;;;;;;10.00;5.90;;;;;;;5.33;72.26;102474.97;10373205;28;96677;-82
2023/12/18 17:19:35;;;;;;;12.13;5.68;;;;;;;5.33;72.97;102466.25;10374209;28;97079;-82
2023/12/18 17:24:40;;;;;;;10.38;5.45;;;;;;;5.25;72.56;102473.97;10372540;28;96571;-82
2023/12/18 17:29:44;;;;;;;13.50;6.18;;;;;;;5.20;72.70;102462.59;10372516;28;96696;-82
2023/12/18 17:34:47;;;;;;;10.35;5.63;;;;;;;5.21;72.73;102485.22;10371451;28;97280;-82
2023/12/18 17:39:54;;;;;;;10.95;5.93;;;;;;;5.19;73.07;102489.53;10371833;28;96731;-82
2023/12/18 17:45:00;;;;;;;8.90;5.97;;;;;;;5.23;73.40;102485.22;10371167;28;96588;-83
2023/12/18 17:50:04;;;;;;;12.20;5.65;;;;;;;5.18;73.07;102497.31;10372086;28;97099;-82
2023/12/18 17:55:10;;;;;;;10.93;6.20;;;;;;;5.18;73.29;102486.88;10372136;28;96731;-82
2023/12/18 18:00:15;;;;;;;7.13;4.85;;;;;;;5.12;73.91;102494.63;10371195;28;97371;-82
2023/12/18 18:05:19;;;;;;;10.23;5.83;;;;;;;5.09;73.11;102482.38;10371208;28;96634;-82
2023/12/18 18:10:24;;;;;;;8.30;5.03;;;;;;;5.09;74.10;102497.16;10372362;28;96699;-82
2023/12/18 18:15:29;;;;;;;9.45;5.63;;;;;;;5.10;73.34;102493.72;10371103;28;97203;-81
2023/12/18 18:20:34;;;;;;;7.75;5.60;;;;;;;5.10;73.24;102498.94;10371283;28;96791;-82
2023/12/18 18:25:41;;;;;;;9.73;5.43;;;;;;;5.03;73.33;102495.34;10369417;28;97217;-82
2023/12/18 18:30:46;;;;;;;12.50;6.05;;;;;;;5.03;73.98;102497.94;10370870;28;96686;-82
2023/12/18 18:35:50;;;;;;;9.45;5.95;;;;;;;4.98;74.26;102485.66;10370129;28;97432;-82
2023/12/18 18:40:55;;;;;;;10.15;5.38;;;;;;;5.00;73.97;102477.00;10370697;28;96911;-82
2023/12/18 18:45:58;;;;;;;10.02;5.38;;;;;;;4.95;74.39;102493.44;10370302;28;97212;-82
2023/12/18 18:51:02;;;;;;;9.07;5.53;;;;;;;4.95;74.00;102475.19;10369907;28;96791;-82
2023/12/18 18:56:08;;;;;;;10.55;6.20;;;;;;;4.95;73.86;102488.22;10370405;28;96774;-82
2023/12/18 19:01:11;;;;;;;10.65;5.63;;;;;;;4.96;74.60;102477.81;10351491;28;97256;-81
2023/12/18 19:06:15;;;;;;;12.18;5.97;;;;;;;4.91;74.58;102475.97;10328030;28;96801;-82
2023/12/18 19:11:22;;;;;;;10.73;4.97;;;;;;;4.94;74.35;102482.13;10369792;28;96605;-82
2023/12/18 19:16:27;;;;;;;7.85;5.38;;;;;;;4.90;74.15;102487.22;10368895;28;96692;-82
2023/12/18 19:21:33;;;;;;;10.02;5.90;;;;;;;4.87;74.47;102477.63;10369895;28;97516;-82
2023/12/18 19:26:38;;;;;;;11.43;5.53;;;;;;;4.89;74.15;102478.53;10369280;28;97381;-82
2023/12/18 19:31:45;;;;;;;12.75;5.65;;;;;;;4.85;74.54;102468.88;10369995;28;96731;-83
2023/12/18 19:36:49;;;;;;;12.15;6.15;;;;;;;4.84;74.25;102461.03;10374190;28;97394;-82
2023/12/18 19:41:55;;;;;;;9.88;5.95;;;;;;;4.83;74.84;102472.31;10376397;28;97181;-82
2023/12/18 19:46:58;;;;;;;14.05;7.32;;;;;;;4.82;74.74;102461.03;10375859;28;97049;-83
2023/12/18 19:52:02;;;;;;;11.02;6.25;;;;;;;4.81;75.22;102445.34;10376867;28;97184;-81
2023/12/18 19:57:09;;;;;;;10.38;5.70;;;;;;;4.70;74.95;102442.53;10375786;28;96725;-81
2023/12/18 20:02:13;;;;;;;9.65;5.97;;;;;;;4.79;75.15;102450.53;10375270;28;96681;-82
2023/12/18 20:07:18;;;;;;;18.23;10.38;;;;;;;4.78;74.61;102453.09;10375048;28;97383;-82
2023/12/18 20:12:25;;;;;;;11.20;6.28;;;;;;;4.72;74.64;102456.47;10417047;28;97123;-82
2023/12/18 20:17:28;;;;;;;11.18;6.00;;;;;;;4.75;74.94;102447.81;10390016;28;96556;-82
2023/12/18 20:22:32;;;;;;;11.80;6.15;;;;;;;4.72;75.37;102466.91;10374858;28;96612;-82
2023/12/18 20:27:38;;;;;;;11.48;6.38;;;;;;;4.74;74.85;102459.13;10374763;28;96747;-82
2023/12/18 20:32:42;;;;;;;12.73;5.88;;;;;;;4.73;74.49;102467.78;10374698;28;96929;-82
2023/12/18 20:37:48;;;;;;;10.13;5.85;;;;;;;4.69;74.94;102464.22;10374479;28;97411;-82
2023/12/18 20:42:53;;;;;;;7.47;4.85;;;;;;;4.68;74.89;102472.91;10375097;28;96786;-82
2023/12/18 20:47:57;;;;;;;10.27;5.55;;;;;;;4.72;75.35;102463.41;10373659;28;97195;-82
2023/12/18 20:53:00;;;;;;;10.68;5.00;;;;;;;4.66;75.10;102464.16;10373716;28;96641;-82
2023/12/18 20:58:07;;;;;;;11.30;5.63;;;;;;;4.68;74.38;102462.47;10350429;28;97181;-82
2023/12/18 21:03:10;;;;;;;8.95;5.85;;;;;;;4.68;74.55;102461.59;10368262;28;96620;-82
2023/12/18 21:08:14;;;;;;;13.07;6.90;;;;;;;4.67;75.21;102459.84;10372888;28;96802;-82
2023/12/18 21:13:21;;;;;;;8.18;5.03;;;;;;;4.66;74.54;102455.47;10373313;28;96692;-81
2023/12/18 21:18:25;;;;;;;9.80;4.90;;;;;;;4.66;74.29;102453.75;10373336;28;97089;-82
2023/12/18 21:23:30;;;;;;;9.27;5.93;;;;;;;4.60;74.43;102439.72;10373116;28;97288;-83
2023/12/18 21:28:36;;;;;;;8.38;4.40;;;;;;;4.59;75.56;102445.75;10373226;28;97761;-82
2023/12/18 21:33:40;;;;;;;9.23;5.22;;;;;;;4.61;75.08;102444.97;10373463;28;96613;-82
2023/12/18 21:38:44;;;;;;;8.55;4.47;;;;;;;4.61;74.96;102441.47;10372992;28;97242;-82
2023/12/18 21:43:48;;;;;;;7.40;3.85;;;;;;;4.59;75.18;102441.44;10371747;28;96850;-82
2023/12/18 21:48:52;;;;;;;9.80;5.22;;;;;;;4.62;75.28;102428.44;10371003;28;96722;-81
2023/12/18 21:53:56;;;;;;;7.40;4.25;;;;;;;4.56;74.98;102441.38;10372163;28;96719;-82
2023/12/18 21:59:04;;;;;;;8.73;4.72;;;;;;;4.55;74.95;102450.03;10369971;28;96917;-82
2023/12/18 22:04:09;;;;;;;9.48;4.53;;;;;;;4.56;75.94;102446.59;10330033;28;97820;-82
2023/12/18 22:09:12;;;;;;;7.93;4.97;;;;;;;4.57;74.98;102434.44;10330473;28;96719;-82
2023/12/18 22:14:17;;;;;;;9.73;5.10;;;;;;;4.50;75.71;102434.31;10338337;28;97325;-82
2023/12/18 22:19:21;;;;;;;9.70;4.82;;;;;;;4.56;75.31;102436.16;10371661;28;96746;-82
2023/12/18 22:24:25;;;;;;;9.00;4.82;;;;;;;4.53;76.02;102440.44;10371954;28;97110;-82
2023/12/18 22:29:30;;;;;;;8.80;4.63;;;;;;;4.56;74.99;102454.41;10370793;28;97240;-82
2023/12/18 22:34:33;;;;;;;7.80;4.90;;;;;;;4.54;75.21;102430.03;10370654;28;96653;-82
2023/12/18 22:39:38;;;;;;;8.60;4.68;;;;;;;4.46;75.04;102442.06;10369598;28;96622;-82
2023/12/18 22:44:43;;;;;;;11.23;4.25;;;;;;;4.45;75.52;102446.38;10370620;28;96724;-82
2023/12/18 22:49:47;;;;;;;10.57;5.20;;;;;;;4.45;75.77;102449.00;10369973;28;96802;-82
2023/12/18 22:54:52;;;;;;;9.50;4.50;;;;;;;4.42;75.55;102451.53;10370642;28;97343;-82
2023/12/18 22:59:57;;;;;;;12.35;5.45;;;;;;;4.42;75.75;102443.72;10361138;28;97488;-82
2023/12/18 23:05:01;;;;;;;10.65;4.78;;;;;;;4.43;75.03;102452.41;10334720;28;97061;-82
2023/12/18 23:10:06;;;;;;;11.20;5.43;;;;;;;4.40;75.77;102448.03;10375456;28;97142;-83
2023/12/18 23:15:11;;;;;;;12.43;5.53;;;;;;;4.39;75.10;102464.50;10378112;28;97011;-82
2023/12/18 23:20:15;;;;;;;7.53;4.15;;;;;;;4.37;75.74;102470.53;10377593;28;97202;-82
2023/12/18 23:25:19;;;;;;;10.82;5.07;;;;;;;4.34;75.26;102465.28;10376495;28;96561;-83
2023/12/18 23:30:23;;;;;;;13.85;5.80;;;;;;;4.35;75.68;102475.72;10375884;28;96598;-81
2023/12/18 23:35:27;;;;;;;11.23;5.05;;;;;;;4.34;75.52;102476.56;10376166;28;96891;-82